createdAt,value
2023-05-06T00:01:39.400Z,12.10
2023-05-06T00:04:08.015Z,12.10
2023-05-06T00:06:36.150Z,12.00
2023-05-06T00:09:05.620Z,12.10
2023-05-06T00:11:33.772Z,12.10
2023-05-06T00:14:01.906Z,12.10
2023-05-06T00:16:29.869Z,12.10
2023-05-06T00:18:57.993Z,12.10
2023-05-06T00:21:27.109Z,12.20
2023-05-06T00:23:55.103Z,12.20
2023-05-06T00:26:24.553Z,12.30
2023-05-06T00:28:52.621Z,12.30
2023-05-06T00:31:20.764Z,12.30
2023-05-06T00:33:48.857Z,12.30
2023-05-06T00:36:17.502Z,12.30
2023-05-06T00:38:45.710Z,12.10
2023-05-06T00:41:13.820Z,11.90
2023-05-06T00:43:43.235Z,11.80
2023-05-06T00:46:12.071Z,11.70
2023-05-06T00:48:40.701Z,11.70
2023-05-06T00:51:09.362Z,11.70
2023-05-06T00:53:38.048Z,11.60
2023-05-06T00:56:06.456Z,11.60
2023-05-06T00:58:35.434Z,11.60
2023-05-06T01:01:04.945Z,11.60
2023-05-06T01:03:33.157Z,11.60
2023-05-06T01:06:12.514Z,11.60
2023-05-06T01:08:46.779Z,11.50
2023-05-06T01:11:21.595Z,11.50
2023-05-06T01:13:57.340Z,11.50
2023-05-06T01:16:30.871Z,11.50
2023-05-06T01:19:01.271Z,11.50
2023-05-06T01:21:34.950Z,11.50
2023-05-06T01:24:04.589Z,11.40
2023-05-06T01:26:32.674Z,11.40
2023-05-06T01:29:02.073Z,11.40
2023-05-06T01:31:39.261Z,11.30
2023-05-06T01:34:15.205Z,11.20
2023-05-06T01:36:49.456Z,11.10
2023-05-06T01:39:21.385Z,11.10
2023-05-06T01:41:51.197Z,11.10
2023-05-06T01:44:23.344Z,11.10
2023-05-06T01:46:52.637Z,11.10
2023-05-06T01:49:23.190Z,11.10
2023-05-06T01:51:53.607Z,11.00
2023-05-06T01:54:23.060Z,11.00
2023-05-06T01:56:51.070Z,11.00
2023-05-06T01:59:19.243Z,11.00
2023-05-06T02:01:47.358Z,10.90
2023-05-06T02:04:16.162Z,10.90
2023-05-06T02:06:44.217Z,10.90
2023-05-06T02:09:12.279Z,10.90
2023-05-06T02:11:41.684Z,10.90
2023-05-06T02:14:09.799Z,10.90
2023-05-06T02:16:37.814Z,10.90
2023-05-06T02:19:06.342Z,10.90
2023-05-06T02:21:34.375Z,10.90
2023-05-06T02:24:02.504Z,10.80
2023-05-06T02:26:30.661Z,10.80
2023-05-06T02:29:00.041Z,10.80
2023-05-06T02:31:28.139Z,10.80
2023-05-06T02:33:56.283Z,10.90
2023-05-06T02:36:24.325Z,10.80
2023-05-06T02:38:52.401Z,10.80
2023-05-06T02:41:20.694Z,10.70
2023-05-06T02:43:48.772Z,10.70
2023-05-06T02:46:18.333Z,10.60
2023-05-06T02:48:46.444Z,10.60
2023-05-06T02:51:14.502Z,10.60
2023-05-06T02:53:42.595Z,10.60
2023-05-06T02:56:10.654Z,10.60
2023-05-06T02:58:38.763Z,10.60
2023-05-06T03:01:06.875Z,10.80
2023-05-06T03:03:36.442Z,10.70
2023-05-06T03:06:04.654Z,10.70
2023-05-06T03:08:32.814Z,10.70
2023-05-06T03:11:00.944Z,10.60
2023-05-06T03:13:29.007Z,10.70
2023-05-06T03:15:57.252Z,10.70
2023-05-06T03:18:25.387Z,10.60
2023-05-06T03:20:54.772Z,10.60
2023-05-06T03:23:22.834Z,10.50
2023-05-06T03:25:50.878Z,10.40
2023-05-06T03:28:18.960Z,10.60
2023-05-06T03:30:47.085Z,10.60
2023-05-06T03:33:15.118Z,10.50
2023-05-06T03:35:43.196Z,10.50
2023-05-06T03:38:12.605Z,10.40
2023-05-06T03:40:40.840Z,10.40
2023-05-06T03:43:09.010Z,10.50
2023-05-06T03:45:37.947Z,10.40
2023-05-06T03:48:06.414Z,10.30
2023-05-06T03:50:34.672Z,10.40
2023-05-06T03:53:02.801Z,10.40
2023-05-06T03:55:32.279Z,10.50
2023-05-06T03:58:00.405Z,10.30
2023-05-06T04:00:28.585Z,10.40
2023-05-06T04:02:56.767Z,10.40
2023-05-06T04:05:24.924Z,10.30
2023-05-06T04:07:53.024Z,10.30
2023-05-06T04:10:21.442Z,10.30
2023-05-06T04:12:51.082Z,10.30
2023-05-06T04:15:19.487Z,10.20
2023-05-06T04:17:47.693Z,10.10
2023-05-06T04:20:16.157Z,10.20
2023-05-06T04:22:44.255Z,10.20
2023-05-06T04:25:13.169Z,10.20
2023-05-06T04:27:41.426Z,10.30
2023-05-06T04:30:12.176Z,10.30
2023-05-06T04:32:40.526Z,10.30
2023-05-06T04:35:10.127Z,10.40
2023-05-06T04:37:38.406Z,10.40
2023-05-06T04:40:07.670Z,10.40
2023-05-06T04:42:35.745Z,10.50
2023-05-06T04:45:04.056Z,10.50
2023-05-06T04:47:33.563Z,10.50
2023-05-06T04:50:01.677Z,10.50
2023-05-06T04:52:30.226Z,10.50
2023-05-06T04:54:58.297Z,10.50
2023-05-06T04:57:26.511Z,10.60
2023-05-06T04:59:54.651Z,10.70
2023-05-06T05:02:22.832Z,10.70
2023-05-06T05:04:52.340Z,10.70
2023-05-06T05:07:20.419Z,10.90
2023-05-06T05:09:48.460Z,10.90
2023-05-06T05:12:16.536Z,11.00
2023-05-06T05:14:44.594Z,11.20
2023-05-06T05:17:12.754Z,11.30
2023-05-06T05:19:40.994Z,11.30
2023-05-06T05:22:10.372Z,11.40
2023-05-06T05:24:38.790Z,11.60
2023-05-06T05:27:07.535Z,11.70
2023-05-06T05:29:35.626Z,11.70
2023-05-06T05:32:03.878Z,11.70
2023-05-06T05:34:32.652Z,11.80
2023-05-06T05:37:00.814Z,11.80
2023-05-06T05:39:30.309Z,11.80
2023-05-06T05:41:58.438Z,11.80
2023-05-06T05:44:26.516Z,11.90
2023-05-06T05:46:54.673Z,11.80
2023-05-06T05:49:22.742Z,11.90
2023-05-06T05:51:50.787Z,12.00
2023-05-06T05:54:18.920Z,12.00
2023-05-06T05:56:48.296Z,12.00
2023-05-06T05:59:16.430Z,12.00
2023-05-06T06:01:44.938Z,12.10
2023-05-06T06:04:13.052Z,12.10
2023-05-06T06:06:41.257Z,12.10
2023-05-06T06:09:10.338Z,12.20
2023-05-06T06:11:38.574Z,12.20
2023-05-06T06:14:08.134Z,12.20
2023-05-06T06:16:37.961Z,12.30
2023-05-06T06:19:06.492Z,12.30
2023-05-06T06:21:34.567Z,12.30
2023-05-06T06:24:02.664Z,12.30
2023-05-06T06:26:30.801Z,12.40
2023-05-06T06:28:58.867Z,12.40
2023-05-06T06:31:29.341Z,12.50
2023-05-06T06:33:57.489Z,12.50
2023-05-06T06:36:25.564Z,12.60
2023-05-06T06:38:53.584Z,12.70
2023-05-06T06:41:22.593Z,12.70
2023-05-06T06:43:50.690Z,12.70
2023-05-06T06:46:18.955Z,12.80
2023-05-06T06:48:49.018Z,12.90
2023-05-06T06:51:17.101Z,13.00
2023-05-06T06:53:48.271Z,13.10
2023-05-06T06:56:16.853Z,13.10
2023-05-06T06:58:45.103Z,13.10
2023-05-06T07:01:13.726Z,13.30
2023-05-06T07:03:42.139Z,13.40
2023-05-06T07:06:11.653Z,13.50
2023-05-06T07:08:39.669Z,13.60
2023-05-06T07:11:07.739Z,13.70
2023-05-06T07:13:35.889Z,13.70
2023-05-06T07:16:03.930Z,13.80
2023-05-06T07:18:31.975Z,13.70
2023-05-06T07:21:00.051Z,13.90
2023-05-06T07:23:31.133Z,13.90
2023-05-06T07:26:00.543Z,14.10
2023-05-06T07:28:28.638Z,14.10
2023-05-06T07:30:56.772Z,14.30
2023-05-06T07:33:24.982Z,14.40
2023-05-06T07:35:54.263Z,14.40
2023-05-06T07:38:22.934Z,14.30
2023-05-06T07:40:52.995Z,14.30
2023-05-06T07:43:23.524Z,14.40
2023-05-06T07:45:51.832Z,14.50
2023-05-06T07:48:20.394Z,14.60
2023-05-06T07:50:48.591Z,14.80
2023-05-06T07:53:16.626Z,15.00
2023-05-06T07:55:44.736Z,15.30
2023-05-06T07:58:14.221Z,15.20
2023-05-06T08:00:42.331Z,15.20
2023-05-06T08:03:10.470Z,15.40
2023-05-06T08:05:38.535Z,15.40
2023-05-06T08:08:06.783Z,15.50
2023-05-06T08:10:35.032Z,15.70
2023-05-06T08:13:03.255Z,15.80
2023-05-06T08:15:32.788Z,15.80
2023-05-06T08:18:13.846Z,15.80
2023-05-06T08:20:48.917Z,15.70
2023-05-06T08:23:16.959Z,15.60
2023-05-06T08:25:45.055Z,15.60
2023-05-06T08:28:13.122Z,15.70
2023-05-06T08:30:42.555Z,15.80
2023-05-06T08:33:10.903Z,15.80
2023-05-06T08:35:38.966Z,16.00
2023-05-06T08:38:07.059Z,16.10
2023-05-06T08:40:35.413Z,16.20
2023-05-06T08:43:05.478Z,16.20
2023-05-06T08:45:34.062Z,16.30
2023-05-06T08:48:03.674Z,16.50
2023-05-06T08:50:31.825Z,16.70
2023-05-06T08:53:00.987Z,16.90
2023-05-06T08:55:29.365Z,16.90
2023-05-06T08:57:58.377Z,17.00
2023-05-06T09:00:26.773Z,17.20
2023-05-06T09:02:54.901Z,17.60
2023-05-06T09:05:24.397Z,17.90
2023-05-06T09:07:52.729Z,17.90
2023-05-06T09:10:20.805Z,18.10
2023-05-06T09:12:48.864Z,18.20
2023-05-06T09:15:16.997Z,18.30
2023-05-06T09:17:45.232Z,18.10
2023-05-06T09:20:13.810Z,18.10
2023-05-06T09:22:43.431Z,18.10
2023-05-06T09:25:12.202Z,18.30
2023-05-06T09:27:41.182Z,18.30
2023-05-06T09:30:11.965Z,18.50
2023-05-06T09:32:40.901Z,18.90
2023-05-06T09:35:10.636Z,19.00
2023-05-06T09:37:39.541Z,18.90
2023-05-06T09:40:10.983Z,19.00
2023-05-06T09:42:39.326Z,19.30
2023-05-06T09:45:10.206Z,19.80
2023-05-06T09:47:39.038Z,19.50
2023-05-06T09:50:09.930Z,19.70
2023-05-06T09:52:38.668Z,19.80
2023-05-06T09:55:10.111Z,19.60
2023-05-06T09:57:38.960Z,19.70
2023-05-06T10:00:13.243Z,20.00
2023-05-06T10:02:42.202Z,20.20
2023-05-06T10:05:12.580Z,20.40
2023-05-06T10:07:41.879Z,20.50
2023-05-06T10:10:13.048Z,20.50
2023-05-06T10:12:41.468Z,20.70
2023-05-06T10:15:10.952Z,20.60
2023-05-06T10:17:41.005Z,20.80
2023-05-06T10:20:14.598Z,20.80
2023-05-06T10:22:53.433Z,20.40
2023-05-06T10:25:32.935Z,20.20
2023-05-06T10:28:01.566Z,20.00
2023-05-06T10:30:33.804Z,20.10
2023-05-06T10:33:06.006Z,20.10
2023-05-06T10:35:47.263Z,20.30
2023-05-06T10:38:21.027Z,20.50
2023-05-06T10:40:52.214Z,20.60
2023-05-06T10:43:29.125Z,21.20
2023-05-06T10:46:06.029Z,21.30
2023-05-06T10:48:34.472Z,21.30
2023-05-06T10:51:23.786Z,21.40
2023-05-06T10:53:59.461Z,21.40
2023-05-06T10:56:29.826Z,21.50
2023-05-06T10:58:58.255Z,21.50
2023-05-06T11:01:28.258Z,21.80
2023-05-06T11:03:56.687Z,21.50
2023-05-06T11:06:35.779Z,22.00
2023-05-06T11:09:05.600Z,21.30
2023-05-06T11:11:52.787Z,21.60
2023-05-06T11:14:28.891Z,21.70
2023-05-06T11:16:58.647Z,22.10
2023-05-06T11:19:28.215Z,22.10
2023-05-06T11:21:58.258Z,22.10
2023-05-06T11:24:28.166Z,22.30
2023-05-06T11:26:59.850Z,22.10
2023-05-06T11:29:28.149Z,21.90
2023-05-06T11:31:56.257Z,21.70
2023-05-06T11:34:27.271Z,22.00
2023-05-06T11:37:02.346Z,22.00
2023-05-06T11:39:34.915Z,22.20
2023-05-06T11:42:09.687Z,22.50
2023-05-06T11:44:39.746Z,22.30
2023-05-06T11:47:09.694Z,22.10
2023-05-06T11:49:39.094Z,22.00
2023-05-06T11:52:08.576Z,21.50
2023-05-06T11:54:37.720Z,22.20
2023-05-06T11:57:05.896Z,22.20
2023-05-06T11:59:37.482Z,22.10
2023-05-06T12:02:07.295Z,22.60
2023-05-06T12:04:39.622Z,22.50
2023-05-06T12:07:08.694Z,22.20
2023-05-06T12:09:37.659Z,22.30
2023-05-06T12:12:06.681Z,22.70
2023-05-06T12:14:37.123Z,22.80
2023-05-06T12:17:05.907Z,23.00
2023-05-06T12:19:34.308Z,23.50
2023-05-06T12:22:19.163Z,23.50
2023-05-06T12:24:47.959Z,23.90
2023-05-06T12:27:16.375Z,23.90
2023-05-06T12:29:54.287Z,24.00
2023-05-06T12:32:22.376Z,24.00
2023-05-06T12:34:50.489Z,24.00
2023-05-06T12:37:26.347Z,24.00
2023-05-06T12:39:57.014Z,23.70
2023-05-06T12:42:27.024Z,23.80
2023-05-06T12:44:56.896Z,24.10
2023-05-06T12:47:26.889Z,24.00
2023-05-06T12:49:58.046Z,23.70
2023-05-06T12:52:28.574Z,23.80
2023-05-06T12:54:57.611Z,23.70
2023-05-06T12:57:26.175Z,23.70
2023-05-06T12:59:56.240Z,24.00
2023-05-06T13:02:26.079Z,24.00
2023-05-06T13:04:54.273Z,24.20
2023-05-06T13:07:22.565Z,24.10
2023-05-06T13:09:50.794Z,24.00
2023-05-06T13:12:19.198Z,23.90
2023-05-06T13:14:47.345Z,23.90
2023-05-06T13:17:15.739Z,23.50
2023-05-06T13:19:45.359Z,23.70
2023-05-06T13:22:13.532Z,23.70
2023-05-06T13:24:41.614Z,23.30
2023-05-06T13:27:10.130Z,23.00
2023-05-06T13:29:38.287Z,22.90
2023-05-06T13:32:08.792Z,23.40
2023-05-06T13:34:37.341Z,23.80
2023-05-06T13:37:06.961Z,23.70
2023-05-06T13:39:35.133Z,23.90
2023-05-06T13:42:06.061Z,24.20
2023-05-06T13:44:35.874Z,23.80
2023-05-06T13:47:04.089Z,23.90
2023-05-06T13:49:32.423Z,24.20
2023-05-06T13:52:00.684Z,24.10
2023-05-06T13:54:30.165Z,23.80
2023-05-06T13:56:59.028Z,23.80
2023-05-06T13:59:27.282Z,24.20
2023-05-06T14:01:57.042Z,24.10
2023-05-06T14:04:25.245Z,23.80
2023-05-06T14:06:53.619Z,23.90
2023-05-06T14:09:21.693Z,24.10
2023-05-06T14:11:51.441Z,24.20
2023-05-06T14:14:20.594Z,23.90
2023-05-06T14:16:48.932Z,23.10
2023-05-06T14:19:17.233Z,23.50
2023-05-06T14:21:45.526Z,23.30
2023-05-06T14:24:13.630Z,22.90
2023-05-06T14:26:41.790Z,23.10
2023-05-06T14:29:11.361Z,23.30
2023-05-06T14:31:39.554Z,23.70
2023-05-06T14:34:07.851Z,24.10
2023-05-06T14:36:35.931Z,23.60
2023-05-06T14:39:04.019Z,23.20
2023-05-06T14:41:32.193Z,23.10
2023-05-06T14:44:00.368Z,23.10
2023-05-06T14:46:30.015Z,23.10
2023-05-06T14:48:58.343Z,22.80
2023-05-06T14:51:26.410Z,22.70
2023-05-06T14:53:54.539Z,22.80
2023-05-06T14:56:22.665Z,22.90
2023-05-06T14:58:50.814Z,22.80
2023-05-06T15:01:18.908Z,22.80
2023-05-06T15:03:50.708Z,22.50
2023-05-06T15:06:19.259Z,22.60
2023-05-06T15:08:47.384Z,22.40
2023-05-06T15:11:15.870Z,22.40
2023-05-06T15:13:43.979Z,22.40
2023-05-06T15:16:11.972Z,22.30
2023-05-06T15:18:41.843Z,22.40
2023-05-06T15:21:13.311Z,22.30
2023-05-06T15:23:41.557Z,22.10
2023-05-06T15:26:09.706Z,22.20
2023-05-06T15:28:37.843Z,22.10
2023-05-06T15:31:06.011Z,22.00
2023-05-06T15:33:34.070Z,22.30
2023-05-06T15:36:02.159Z,22.60
2023-05-06T15:38:58.374Z,22.40
2023-05-06T15:41:30.354Z,22.30
2023-05-06T15:43:59.866Z,22.10
2023-05-06T15:46:28.941Z,22.20
2023-05-06T15:49:12.773Z,22.30
2023-05-06T15:51:45.488Z,22.00
2023-05-06T15:54:18.259Z,22.20
2023-05-06T15:56:46.644Z,22.30
2023-05-06T15:59:14.722Z,22.10
2023-05-06T16:02:24.438Z,22.10
2023-05-06T16:04:31.978Z,22.10
2023-05-06T16:07:00.381Z,22.20
2023-05-06T16:09:29.861Z,22.00
2023-05-06T16:11:57.974Z,21.90
2023-05-06T16:14:26.098Z,21.90
2023-05-06T16:16:54.034Z,21.70
2023-05-06T16:19:22.110Z,21.80
2023-05-06T16:21:50.239Z,21.70
2023-05-06T16:24:18.315Z,21.70
2023-05-06T16:26:47.770Z,21.60
2023-05-06T16:29:19.060Z,21.70
2023-05-06T16:31:47.661Z,21.50
2023-05-06T16:34:16.137Z,21.30
2023-05-06T16:36:44.660Z,21.50
2023-05-06T16:39:13.127Z,21.50
2023-05-06T16:41:41.367Z,21.40
2023-05-06T16:44:10.861Z,21.40
2023-05-06T16:46:39.225Z,21.30
2023-05-06T16:49:07.358Z,21.30
2023-05-06T16:51:35.450Z,21.30
2023-05-06T16:54:03.519Z,21.30
2023-05-06T16:56:43.951Z,21.30
2023-05-06T16:59:21.408Z,21.20
2023-05-06T17:01:50.217Z,21.20
2023-05-06T17:04:18.386Z,21.10
2023-05-06T17:06:46.572Z,21.10
2023-05-06T17:09:14.924Z,21.10
2023-05-06T17:11:43.093Z,21.10
2023-05-06T17:14:11.902Z,20.70
2023-05-06T17:16:41.611Z,19.90
2023-05-06T17:19:10.215Z,19.40
2023-05-06T17:21:38.431Z,19.00
2023-05-06T17:24:06.924Z,18.80
2023-05-06T17:26:36.044Z,18.40
2023-05-06T17:29:04.211Z,18.30
2023-05-06T17:31:32.442Z,18.20
2023-05-06T17:34:02.393Z,18.20
2023-05-06T17:36:31.216Z,18.00
2023-05-06T17:39:03.192Z,17.80
2023-05-06T17:41:31.574Z,17.70
2023-05-06T17:43:59.955Z,17.70
2023-05-06T17:46:28.586Z,17.60
2023-05-06T17:48:57.162Z,17.50
2023-05-06T17:51:27.026Z,17.40
2023-05-06T17:53:55.970Z,17.50
2023-05-06T17:56:24.416Z,17.50
2023-05-06T17:58:52.993Z,17.40
2023-05-06T18:01:21.619Z,17.40
2023-05-06T18:03:50.257Z,17.40
2023-05-06T18:06:18.756Z,17.40
2023-05-06T18:08:48.563Z,17.40
2023-05-06T18:11:17.369Z,17.40
2023-05-06T18:13:45.688Z,17.40
2023-05-06T18:16:13.929Z,17.40
2023-05-06T18:18:43.682Z,17.40
2023-05-06T18:21:12.130Z,17.40
2023-05-06T18:23:40.511Z,17.40
2023-05-06T18:26:10.467Z,17.40
2023-05-06T18:28:38.869Z,17.30
2023-05-06T18:31:08.063Z,17.40
2023-05-06T18:33:36.693Z,17.30
2023-05-06T18:36:05.294Z,17.20
2023-05-06T18:38:33.893Z,17.20
2023-05-06T18:41:03.306Z,17.20
2023-05-06T18:43:32.956Z,17.20
2023-05-06T18:46:01.424Z,17.20
2023-05-06T18:48:31.992Z,17.20
2023-05-06T18:51:14.391Z,17.10
2023-05-06T18:53:43.039Z,17.10
2023-05-06T18:56:12.000Z,17.10
2023-05-06T18:58:42.187Z,16.90
2023-05-06T19:01:11.593Z,16.90
2023-05-06T19:03:40.227Z,16.90
2023-05-06T19:06:09.376Z,16.70
2023-05-06T19:08:38.682Z,16.70
2023-05-06T19:11:07.143Z,16.70
2023-05-06T19:13:35.896Z,16.70
2023-05-06T19:16:05.634Z,16.60
2023-05-06T19:18:34.053Z,16.60
2023-05-06T19:21:02.612Z,16.70
2023-05-06T19:23:33.068Z,16.80
2023-05-06T19:26:01.604Z,16.80
2023-05-06T19:28:29.667Z,16.80
2023-05-06T19:30:58.810Z,16.70
2023-05-06T19:33:28.404Z,16.70
2023-05-06T19:35:56.449Z,16.70
2023-05-06T19:38:24.743Z,16.70
2023-05-06T19:40:52.957Z,16.80
2023-05-06T19:43:21.263Z,16.70
2023-05-06T19:45:49.465Z,16.60
2023-05-06T19:48:17.963Z,16.60
2023-05-06T19:50:47.583Z,16.60
2023-05-06T19:53:15.651Z,16.60
2023-05-06T19:55:43.742Z,16.60
2023-05-06T19:58:14.103Z,16.60
2023-05-06T20:00:42.328Z,16.60
2023-05-06T20:03:10.573Z,16.60
2023-05-06T20:05:38.851Z,16.60
2023-05-06T20:08:10.799Z,16.60
2023-05-06T20:10:39.558Z,16.60
2023-05-06T20:13:07.955Z,16.50
2023-05-06T20:15:36.489Z,16.50
2023-05-06T20:18:04.939Z,16.50
2023-05-06T20:20:35.955Z,16.50
2023-05-06T20:23:05.249Z,16.50
2023-05-06T20:25:36.897Z,16.50
2023-05-06T20:28:06.506Z,16.50
2023-05-06T20:30:34.891Z,16.50
2023-05-06T20:33:03.092Z,16.50
2023-05-06T20:35:31.437Z,16.40
2023-05-06T20:37:59.779Z,16.40
2023-05-06T20:40:28.565Z,16.30
2023-05-06T20:42:58.313Z,16.30
2023-05-06T20:45:27.737Z,16.30
2023-05-06T20:47:55.925Z,16.30
2023-05-06T20:50:24.088Z,16.20
2023-05-06T20:52:52.962Z,16.20
2023-05-06T20:55:23.384Z,16.20
2023-05-06T20:57:51.828Z,16.10
2023-05-06T21:00:22.446Z,16.10
2023-05-06T21:02:50.885Z,16.10
2023-05-06T21:05:19.110Z,16.10
2023-05-06T21:07:47.450Z,16.10
2023-05-06T21:10:15.712Z,16.10
2023-05-06T21:12:48.273Z,16.10
2023-05-06T21:15:16.516Z,16.10
2023-05-06T21:17:46.376Z,16.10
2023-05-06T21:20:14.836Z,16.10
2023-05-06T21:22:42.981Z,16.00
2023-05-06T21:25:13.246Z,16.00
2023-05-06T21:27:41.578Z,16.00
2023-05-06T21:30:11.483Z,15.80
2023-05-06T21:32:39.677Z,15.80
2023-05-06T21:35:10.269Z,15.80
2023-05-06T21:37:38.559Z,15.80
2023-05-06T21:40:07.612Z,15.80
2023-05-06T21:42:35.948Z,15.70
2023-05-06T21:45:04.149Z,15.70
2023-05-06T21:47:32.398Z,15.70
2023-05-06T21:50:00.645Z,15.70
2023-05-06T21:52:30.189Z,15.70
2023-05-06T21:55:00.489Z,15.70
2023-05-06T21:57:28.633Z,15.70
2023-05-06T21:59:56.813Z,15.70
2023-05-06T22:02:25.104Z,15.70
2023-05-06T22:04:53.370Z,15.60
2023-05-06T22:07:21.737Z,15.70
2023-05-06T22:09:52.207Z,15.70
2023-05-06T22:12:20.381Z,15.70
2023-05-06T22:14:48.534Z,15.70
2023-05-06T22:17:16.763Z,15.70
2023-05-06T22:19:44.859Z,15.70
2023-05-06T22:22:13.448Z,15.70
2023-05-06T22:24:41.466Z,15.50
2023-05-06T22:27:10.897Z,15.50
2023-05-06T22:29:38.969Z,15.50
2023-05-06T22:32:07.485Z,15.60
2023-05-06T22:34:35.735Z,15.50
2023-05-06T22:37:09.461Z,15.40
2023-05-06T22:39:37.616Z,15.50
2023-05-06T22:42:05.882Z,15.50
2023-05-06T22:44:35.432Z,15.60
2023-05-06T22:47:03.628Z,15.60
2023-05-06T22:49:32.836Z,15.70
2023-05-06T22:52:00.942Z,15.70
2023-05-06T22:54:28.994Z,15.70
2023-05-06T22:56:57.081Z,15.70
2023-05-06T22:59:26.354Z,15.60
2023-05-06T23:01:56.046Z,15.50
2023-05-06T23:04:24.326Z,15.40
2023-05-06T23:06:52.487Z,15.40
2023-05-06T23:09:20.656Z,15.40
2023-05-06T23:11:48.772Z,15.40
2023-05-06T23:14:17.348Z,15.40
2023-05-06T23:16:45.509Z,15.40
2023-05-06T23:19:15.051Z,15.30
2023-05-06T23:21:43.948Z,15.30
2023-05-06T23:24:12.782Z,15.30
2023-05-06T23:26:40.990Z,15.20
2023-05-06T23:29:09.128Z,15.20
2023-05-06T23:31:38.155Z,15.10
2023-05-06T23:34:06.360Z,15.10
2023-05-06T23:36:35.995Z,15.10
2023-05-06T23:39:04.215Z,15.10
2023-05-06T23:41:32.296Z,15.10
2023-05-06T23:44:00.474Z,15.10
2023-05-06T23:46:28.611Z,15.00
2023-05-06T23:48:56.741Z,15.00
2023-05-06T23:51:24.885Z,15.00
2023-05-06T23:53:54.387Z,14.90
2023-05-06T23:56:22.499Z,14.90
2023-05-06T23:58:50.576Z,14.90
